createdAt,value
2022-09-06T00:01:12.962Z,11.16
2022-09-06T00:03:41.856Z,11.13
2022-09-06T00:06:18.645Z,11.10
2022-09-06T00:08:47.872Z,10.98
2022-09-06T00:11:17.408Z,11.04
2022-09-06T00:13:46.207Z,11.01
2022-09-06T00:16:17.178Z,11.00
2022-09-06T00:18:46.203Z,10.96
2022-09-06T00:21:20.673Z,10.93
2022-09-06T00:23:48.697Z,10.91
2022-09-06T00:26:17.055Z,10.88
2022-09-06T00:28:45.904Z,10.85
2022-09-06T00:31:16.859Z,10.81
2022-09-06T00:33:44.955Z,10.77
2022-09-06T00:36:13.618Z,10.74
2022-09-06T00:38:42.003Z,10.70
2022-09-06T00:41:12.417Z,10.68
2022-09-06T00:43:40.745Z,10.65
2022-09-06T00:46:13.992Z,10.63
2022-09-06T00:48:44.116Z,10.62
2022-09-06T00:51:15.892Z,10.62
2022-09-06T00:53:44.973Z,10.61
2022-09-06T00:56:13.794Z,10.59
2022-09-06T00:58:41.924Z,10.57
2022-09-06T01:01:09.930Z,10.54
2022-09-06T01:03:39.223Z,10.52
2022-09-06T01:06:18.525Z,10.48
2022-09-06T01:08:52.648Z,10.44
2022-09-06T01:11:31.136Z,10.41
2022-09-06T01:14:29.827Z,10.38
2022-09-06T01:17:31.092Z,10.33
2022-09-06T01:20:24.068Z,10.30
2022-09-06T01:23:16.586Z,10.27
2022-09-06T01:25:47.774Z,10.22
2022-09-06T01:28:31.282Z,10.18
2022-09-06T01:31:18.258Z,10.14
2022-09-06T01:33:58.199Z,10.09
2022-09-06T01:36:33.303Z,10.04
2022-09-06T01:39:02.084Z,9.99
2022-09-06T01:41:30.916Z,9.96
2022-09-06T01:43:59.923Z,9.92
2022-09-06T01:46:39.670Z,9.88
2022-09-06T01:49:29.962Z,9.85
2022-09-06T01:52:04.928Z,9.83
2022-09-06T01:54:46.793Z,9.82
2022-09-06T01:57:39.151Z,9.78
2022-09-06T02:00:14.972Z,9.75
2022-09-06T02:03:00.994Z,9.71
2022-09-06T02:05:37.782Z,9.67
2022-09-06T02:08:13.106Z,9.64
2022-09-06T02:10:46.076Z,9.62
2022-09-06T02:13:18.145Z,9.58
2022-09-06T02:15:52.842Z,9.55
2022-09-06T02:18:28.215Z,9.52
2022-09-06T02:20:59.170Z,9.48
2022-09-06T02:23:31.561Z,9.38
2022-09-06T02:26:07.371Z,9.42
2022-09-06T02:28:35.652Z,9.38
2022-09-06T02:31:11.071Z,9.34
2022-09-06T02:33:40.805Z,9.31
2022-09-06T02:36:09.808Z,9.29
2022-09-06T02:38:40.964Z,9.27
2022-09-06T02:41:14.504Z,9.25
2022-09-06T02:43:43.847Z,9.22
2022-09-06T02:46:12.700Z,9.19
2022-09-06T02:48:40.731Z,9.17
2022-09-06T02:51:12.137Z,9.16
2022-09-06T02:53:40.086Z,9.14
2022-09-06T02:56:07.994Z,9.12
2022-09-06T02:58:36.136Z,9.02
2022-09-06T03:01:04.444Z,9.06
2022-09-06T03:03:32.679Z,9.04
2022-09-06T03:06:00.877Z,9.01
2022-09-06T03:08:33.728Z,8.98
2022-09-06T03:11:02.422Z,8.96
2022-09-06T03:13:30.562Z,8.93
2022-09-06T03:16:00.377Z,8.91
2022-09-06T03:18:30.277Z,8.90
2022-09-06T03:20:58.765Z,8.90
2022-09-06T03:23:29.467Z,8.89
2022-09-06T03:25:58.107Z,8.88
2022-09-06T03:28:26.203Z,8.77
2022-09-06T03:30:54.602Z,8.83
2022-09-06T03:33:22.969Z,8.76
2022-09-06T03:35:56.649Z,8.80
2022-09-06T03:38:26.757Z,8.79
2022-09-06T03:40:55.373Z,8.77
2022-09-06T03:43:26.165Z,8.74
2022-09-06T03:45:58.149Z,8.72
2022-09-06T03:48:29.430Z,8.72
2022-09-06T03:50:58.626Z,8.71
2022-09-06T03:53:28.525Z,8.70
2022-09-06T03:55:58.249Z,8.69
2022-09-06T03:58:30.969Z,8.69
2022-09-06T04:01:05.055Z,8.68
2022-09-06T04:03:34.172Z,8.67
2022-09-06T04:06:02.972Z,8.64
2022-09-06T04:08:31.821Z,8.62
2022-09-06T04:11:00.577Z,8.63
2022-09-06T04:13:30.634Z,8.63
2022-09-06T04:15:59.188Z,8.47
2022-09-06T04:18:28.108Z,8.61
2022-09-06T04:20:56.920Z,8.62
2022-09-06T04:23:27.426Z,8.63
2022-09-06T04:25:57.594Z,8.63
2022-09-06T04:28:27.515Z,8.63
2022-09-06T04:31:05.143Z,8.64
2022-09-06T04:33:35.489Z,8.64
2022-09-06T04:36:06.490Z,8.65
2022-09-06T04:38:40.305Z,8.66
2022-09-06T04:41:10.099Z,8.67
2022-09-06T04:43:38.670Z,8.69
2022-09-06T04:46:25.134Z,8.70
2022-09-06T04:48:55.043Z,8.71
2022-09-06T04:51:24.431Z,8.74
2022-09-06T04:53:52.488Z,8.78
2022-09-06T04:56:22.560Z,8.82
2022-09-06T04:58:52.554Z,8.85
2022-09-06T05:01:21.120Z,8.90
2022-09-06T05:03:50.359Z,8.94
2022-09-06T05:06:23.016Z,9.00
2022-09-06T05:08:51.290Z,9.06
2022-09-06T05:11:19.962Z,9.10
2022-09-06T05:13:50.546Z,9.16
2022-09-06T05:16:18.700Z,9.23
2022-09-06T05:18:46.696Z,9.31
2022-09-06T05:21:15.082Z,9.40
2022-09-06T05:23:43.725Z,9.49
2022-09-06T05:26:11.629Z,9.58
2022-09-06T05:28:39.546Z,9.68
2022-09-06T05:31:13.806Z,9.77
2022-09-06T05:33:41.844Z,9.88
2022-09-06T05:36:10.378Z,10.00
2022-09-06T05:38:38.428Z,10.12
2022-09-06T05:41:06.447Z,10.25
2022-09-06T05:43:34.434Z,10.38
2022-09-06T05:46:03.769Z,10.53
2022-09-06T05:48:36.596Z,10.69
2022-09-06T05:51:13.130Z,10.84
2022-09-06T05:53:44.600Z,11.00
2022-09-06T05:56:14.649Z,11.14
2022-09-06T05:58:43.016Z,11.31
2022-09-06T06:01:18.528Z,11.44
2022-09-06T06:03:59.053Z,11.60
2022-09-06T06:06:29.886Z,11.75
2022-09-06T06:08:59.297Z,11.95
2022-09-06T06:11:28.574Z,12.12
2022-09-06T06:13:56.505Z,12.29
2022-09-06T06:16:25.612Z,12.42
2022-09-06T06:18:53.751Z,12.56
2022-09-06T06:21:32.823Z,12.69
2022-09-06T06:24:05.529Z,12.88
2022-09-06T06:26:35.898Z,13.02
2022-09-06T06:29:08.279Z,13.18
2022-09-06T06:31:38.299Z,13.30
2022-09-06T06:34:07.330Z,13.44
2022-09-06T06:36:36.741Z,13.55
2022-09-06T06:39:08.439Z,13.67
2022-09-06T06:41:36.597Z,13.81
2022-09-06T06:44:09.983Z,13.96
2022-09-06T06:46:38.578Z,14.10
2022-09-06T06:49:06.630Z,14.23
2022-09-06T06:51:39.379Z,14.37
2022-09-06T06:54:07.705Z,14.53
2022-09-06T06:56:37.832Z,14.64
2022-09-06T06:59:08.014Z,14.73
2022-09-06T07:01:36.386Z,14.85
2022-09-06T07:04:05.622Z,14.94
2022-09-06T07:12:25.108Z,15.35
2022-09-06T07:14:53.173Z,15.38
2022-09-06T07:17:21.080Z,15.59
2022-09-06T07:22:37.948Z,15.84
2022-09-06T07:25:07.728Z,15.93
2022-09-06T07:27:50.872Z,16.02
2022-09-06T07:30:20.363Z,16.13
2022-09-06T07:32:48.864Z,16.20
2022-09-06T07:35:17.450Z,16.24
2022-09-06T07:37:52.615Z,16.29
2022-09-06T07:40:20.671Z,16.33
2022-09-06T07:42:48.734Z,16.42
2022-09-06T07:45:16.702Z,16.51
2022-09-06T07:48:00.187Z,16.64
2022-09-06T07:50:47.718Z,16.75
2022-09-06T07:53:24.572Z,16.85
2022-09-06T07:56:00.669Z,16.96
2022-09-06T07:58:30.307Z,17.08
2022-09-06T08:01:17.836Z,17.10
2022-09-06T08:03:47.404Z,17.31
2022-09-06T08:06:15.249Z,17.43
2022-09-06T08:08:59.384Z,17.52
2022-09-06T08:11:30.779Z,17.59
2022-09-06T08:14:00.407Z,17.64
2022-09-06T08:16:30.722Z,17.71
2022-09-06T08:19:04.423Z,17.77
2022-09-06T08:21:33.041Z,17.83
2022-09-06T08:24:06.651Z,17.84
2022-09-06T08:26:36.451Z,18.04
2022-09-06T08:29:07.260Z,18.15
2022-09-06T08:31:38.017Z,18.26
2022-09-06T08:34:06.637Z,18.35
2022-09-06T08:36:35.973Z,18.45
2022-09-06T08:39:06.346Z,18.54
2022-09-06T08:41:46.706Z,18.64
2022-09-06T08:47:16.255Z,18.73
2022-09-06T08:49:46.372Z,18.77
2022-09-06T08:52:29.685Z,18.81
2022-09-06T08:54:57.630Z,18.83
2022-09-06T08:57:57.277Z,18.82
2022-09-06T09:00:25.574Z,18.86
2022-09-06T09:03:04.896Z,18.88
2022-09-06T09:05:36.289Z,18.87
2022-09-06T09:08:22.594Z,18.86
2022-09-06T09:10:59.700Z,18.88
2022-09-06T09:13:47.861Z,18.93
2022-09-06T09:16:16.282Z,18.99
2022-09-06T09:18:48.674Z,19.07
2022-09-06T09:21:22.685Z,19.13
2022-09-06T09:23:59.076Z,19.16
2022-09-06T09:26:32.446Z,19.19
2022-09-06T09:29:05.536Z,19.24
2022-09-06T09:31:39.967Z,19.31
2022-09-06T09:34:38.162Z,19.37
2022-09-06T09:40:40.926Z,19.46
2022-09-06T09:43:13.825Z,19.56
2022-09-06T09:45:42.434Z,19.61
2022-09-06T09:48:41.575Z,19.61
2022-09-06T09:51:30.955Z,19.59
2022-09-06T09:54:02.130Z,19.66
2022-09-06T09:56:43.655Z,19.67
2022-09-06T09:59:48.063Z,19.70
2022-09-06T10:02:25.185Z,19.76
2022-09-06T10:05:05.976Z,19.85
2022-09-06T10:07:35.676Z,19.92
2022-09-06T10:10:12.942Z,19.95
2022-09-06T10:12:42.690Z,19.98
2022-09-06T10:15:13.905Z,20.00
2022-09-06T10:17:49.948Z,20.03
2022-09-06T10:20:18.875Z,19.95
2022-09-06T10:23:08.037Z,20.00
2022-09-06T10:25:55.110Z,19.91
2022-09-06T10:28:44.076Z,19.82
2022-09-06T10:31:32.047Z,19.75
2022-09-06T10:34:15.672Z,19.75
2022-09-06T10:36:52.738Z,19.77
2022-09-06T10:39:39.700Z,19.79
2022-09-06T10:42:35.601Z,19.84
2022-09-06T10:45:09.840Z,19.90
2022-09-06T10:48:03.089Z,19.93
2022-09-06T10:51:03.159Z,19.91
2022-09-06T10:53:52.368Z,19.94
2022-09-06T10:56:33.689Z,19.94
2022-09-06T10:59:36.934Z,19.91
2022-09-06T11:02:15.993Z,19.85
2022-09-06T11:10:38.408Z,19.87
2022-09-06T11:13:12.688Z,19.91
2022-09-06T11:16:24.506Z,19.94
2022-09-06T11:19:06.801Z,19.89
2022-09-06T11:21:51.402Z,19.95
2022-09-06T11:24:37.668Z,19.91
2022-09-06T11:27:48.328Z,19.88
2022-09-06T11:30:18.160Z,19.84
2022-09-06T11:32:50.584Z,19.80
2022-09-06T11:35:21.597Z,19.80
2022-09-06T11:38:00.674Z,19.80
2022-09-06T11:40:37.031Z,19.77
2022-09-06T11:43:04.809Z,19.72
2022-09-06T11:45:41.759Z,19.73
2022-09-06T11:48:34.605Z,19.77
2022-09-06T11:51:10.949Z,19.80
2022-09-06T11:53:51.182Z,19.83
2022-09-06T11:56:48.327Z,19.87
2022-09-06T11:59:16.094Z,19.87
2022-09-06T12:01:56.543Z,19.89
2022-09-06T12:05:01.765Z,19.95
2022-09-06T12:07:31.791Z,19.96
2022-09-06T12:10:31.514Z,19.94
2022-09-06T12:13:03.290Z,19.94
2022-09-06T12:15:44.572Z,19.92
2022-09-06T12:18:50.045Z,19.94
2022-09-06T12:21:34.973Z,19.97
2022-09-06T12:24:04.922Z,19.99
2022-09-06T12:26:55.577Z,19.92
2022-09-06T12:29:28.639Z,20.04
2022-09-06T12:32:01.796Z,20.09
2022-09-06T12:34:33.529Z,20.16
2022-09-06T12:37:05.179Z,20.20
2022-09-06T12:39:34.084Z,20.24
2022-09-06T12:42:13.135Z,20.28
2022-09-06T12:44:47.952Z,20.31
2022-09-06T12:47:23.802Z,20.31
2022-09-06T12:50:19.562Z,20.30
2022-09-06T12:52:54.762Z,20.32
2022-09-06T12:55:32.772Z,20.32
2022-09-06T12:58:11.984Z,20.31
2022-09-06T13:00:51.629Z,20.28
2022-09-06T13:03:36.187Z,20.23
2022-09-06T13:06:06.494Z,20.14
2022-09-06T13:08:48.885Z,20.00
2022-09-06T13:11:34.527Z,20.00
2022-09-06T13:14:28.054Z,19.95
2022-09-06T13:16:57.747Z,19.92
2022-09-06T13:19:42.747Z,19.90
2022-09-06T13:22:11.301Z,19.88
2022-09-06T13:24:47.164Z,19.93
2022-09-06T13:27:27.805Z,19.99
2022-09-06T13:30:07.488Z,19.96
2022-09-06T13:32:37.430Z,20.08
2022-09-06T13:35:05.855Z,20.08
2022-09-06T13:37:36.485Z,20.10
2022-09-06T13:41:16.259Z,20.11
2022-09-06T13:43:50.774Z,20.14
2022-09-06T13:46:18.866Z,20.17
2022-09-06T13:48:46.839Z,20.20
2022-09-06T13:51:14.937Z,20.22
2022-09-06T13:53:43.152Z,20.15
2022-09-06T13:56:12.137Z,20.24
2022-09-06T13:58:40.328Z,20.17
2022-09-06T14:01:10.138Z,20.23
2022-09-06T14:03:42.399Z,20.21
2022-09-06T14:06:10.876Z,20.26
2022-09-06T14:09:05.345Z,20.28
2022-09-06T14:11:28.060Z,20.33
2022-09-06T14:13:56.098Z,20.37
2022-09-06T14:16:24.054Z,20.39
2022-09-06T14:18:52.299Z,20.43
2022-09-06T14:21:20.498Z,20.46
2022-09-06T14:23:51.111Z,20.50
2022-09-06T14:26:21.304Z,20.46
2022-09-06T14:28:50.066Z,20.61
2022-09-06T14:31:21.369Z,20.68
2022-09-06T14:33:49.707Z,20.69
2022-09-06T14:36:21.049Z,20.71
2022-09-06T14:38:51.332Z,20.74
2022-09-06T14:41:20.532Z,20.82
2022-09-06T14:43:54.655Z,20.90
2022-09-06T14:46:24.631Z,20.99
2022-09-06T14:49:08.140Z,21.03
2022-09-06T14:51:37.924Z,21.03
2022-09-06T14:54:09.448Z,21.03
2022-09-06T14:56:40.236Z,21.03
2022-09-06T14:59:09.931Z,20.98
2022-09-06T15:01:39.703Z,20.95
2022-09-06T15:04:10.183Z,20.93
2022-09-06T15:06:40.936Z,20.92
2022-09-06T15:09:11.543Z,20.90
2022-09-06T15:11:45.231Z,20.87
2022-09-06T15:14:15.994Z,20.79
2022-09-06T15:16:53.352Z,20.71
2022-09-06T15:19:30.405Z,20.63
2022-09-06T15:21:59.155Z,20.55
2022-09-06T15:24:28.396Z,20.47
2022-09-06T15:26:57.142Z,20.30
2022-09-06T15:29:27.023Z,20.31
2022-09-06T15:31:55.607Z,20.24
2022-09-06T15:34:25.989Z,20.18
2022-09-06T15:36:54.578Z,20.12
2022-09-06T15:39:22.854Z,20.05
2022-09-06T15:41:51.879Z,19.98
2022-09-06T15:44:23.685Z,19.90
2022-09-06T15:46:58.221Z,19.83
2022-09-06T15:49:31.950Z,19.79
2022-09-06T15:52:02.041Z,19.74
2022-09-06T15:54:48.988Z,19.69
2022-09-06T15:57:17.643Z,19.50
2022-09-06T15:59:46.178Z,19.56
2022-09-06T16:02:14.760Z,19.49
2022-09-06T16:04:42.817Z,19.44
2022-09-06T16:07:10.933Z,19.41
2022-09-06T16:09:40.359Z,19.36
2022-09-06T16:12:14.449Z,19.30
2022-09-06T16:14:42.567Z,19.25
2022-09-06T16:17:22.001Z,19.21
2022-09-06T16:19:49.994Z,19.15
2022-09-06T16:22:17.840Z,19.11
2022-09-06T16:24:45.933Z,19.04
2022-09-06T16:27:14.247Z,18.95
2022-09-06T16:29:42.147Z,18.80
2022-09-06T16:32:10.237Z,18.76
2022-09-06T16:34:38.652Z,18.64
2022-09-06T16:37:08.146Z,18.52
2022-09-06T16:39:36.564Z,18.39
2022-09-06T16:42:04.852Z,18.25
2022-09-06T16:44:33.076Z,18.10
2022-09-06T16:47:04.182Z,17.97
2022-09-06T16:49:32.444Z,17.82
2022-09-06T16:52:00.609Z,17.67
2022-09-06T16:54:28.635Z,17.53
2022-09-06T16:56:56.770Z,17.38
2022-09-06T16:59:25.139Z,17.24
2022-09-06T17:01:58.209Z,17.10
2022-09-06T17:04:26.321Z,16.94
2022-09-06T17:06:54.623Z,16.80
2022-09-06T17:09:26.910Z,16.66
2022-09-06T17:11:55.552Z,16.52
2022-09-06T17:14:23.435Z,16.40
2022-09-06T17:17:07.333Z,16.26
2022-09-06T17:19:43.525Z,16.03
2022-09-06T17:22:12.877Z,15.98
2022-09-06T17:24:43.971Z,15.86
2022-09-06T17:27:12.550Z,15.73
2022-09-06T17:29:40.603Z,15.59
2022-09-06T17:32:10.609Z,15.46
2022-09-06T17:34:44.910Z,15.35
2022-09-06T17:37:14.485Z,15.22
2022-09-06T17:39:42.787Z,15.10
2022-09-06T17:42:10.801Z,14.98
2022-09-06T17:44:39.138Z,14.87
2022-09-06T17:47:15.059Z,14.75
2022-09-06T17:49:44.583Z,14.64
2022-09-06T17:52:13.135Z,14.55
2022-09-06T17:54:47.194Z,14.45
2022-09-06T17:57:18.048Z,14.36
2022-09-06T17:59:46.939Z,14.08
2022-09-06T18:02:22.047Z,14.15
2022-09-06T18:05:04.459Z,14.06
2022-09-06T18:10:26.113Z,13.84
2022-09-06T18:12:54.639Z,13.75
2022-09-06T18:15:23.973Z,13.57
2022-09-06T18:17:52.929Z,13.57
2022-09-06T18:20:21.061Z,13.49
2022-09-06T18:22:49.193Z,13.39
2022-09-06T18:25:18.880Z,13.31
2022-09-06T18:27:49.019Z,13.23
2022-09-06T18:30:17.484Z,13.14
2022-09-06T18:32:46.353Z,13.07
2022-09-06T18:35:15.564Z,13.00
2022-09-06T18:37:44.895Z,12.92
2022-09-06T18:40:14.306Z,12.84
2022-09-06T18:42:44.247Z,12.78
2022-09-06T18:45:18.511Z,12.71
2022-09-06T18:47:47.470Z,12.64
2022-09-06T18:50:16.392Z,12.57
2022-09-06T18:52:44.719Z,12.51
2022-09-06T18:55:16.578Z,12.43
2022-09-06T18:57:44.640Z,12.34
2022-09-06T19:00:13.757Z,12.26
2022-09-06T19:02:42.184Z,12.18
2022-09-06T19:05:10.538Z,12.11
2022-09-06T19:07:38.903Z,12.04
2022-09-06T19:10:07.709Z,12.00
2022-09-06T19:12:36.410Z,11.84
2022-09-06T19:15:05.105Z,11.94
2022-09-06T19:17:33.539Z,11.89
2022-09-06T19:20:01.672Z,11.82
2022-09-06T19:22:29.596Z,11.78
2022-09-06T19:25:00.936Z,11.76
2022-09-06T19:27:33.029Z,11.72
2022-09-06T19:30:01.348Z,11.68
2022-09-06T19:32:29.254Z,11.65
2022-09-06T19:34:57.243Z,11.60
2022-09-06T19:37:25.383Z,11.57
2022-09-06T19:39:53.685Z,11.53
2022-09-06T19:42:22.308Z,11.48
2022-09-06T19:44:50.656Z,11.43
2022-09-06T19:47:21.072Z,11.36
2022-09-06T19:49:49.017Z,11.29
2022-09-06T19:52:17.634Z,11.25
2022-09-06T19:54:45.650Z,11.22
2022-09-06T19:57:13.676Z,11.17
2022-09-06T19:59:41.895Z,11.11
2022-09-06T20:02:15.168Z,11.06
2022-09-06T20:04:43.895Z,11.02
2022-09-06T20:07:11.831Z,10.96
2022-09-06T20:09:40.240Z,10.89
2022-09-06T20:12:09.005Z,10.84
2022-09-06T20:14:38.204Z,10.70
2022-09-06T20:17:32.284Z,10.72
2022-09-06T20:19:57.708Z,10.66
2022-09-06T20:22:26.651Z,10.61
2022-09-06T20:25:17.986Z,10.56
2022-09-06T20:27:46.847Z,10.51
2022-09-06T20:30:15.514Z,10.47
2022-09-06T20:32:47.053Z,10.44
2022-09-06T20:35:16.057Z,10.42
2022-09-06T20:37:46.114Z,10.41
2022-09-06T20:40:17.783Z,10.35
2022-09-06T20:42:47.076Z,10.33
2022-09-06T20:45:15.938Z,10.29
2022-09-06T20:47:44.129Z,10.26
2022-09-06T20:50:12.366Z,10.20
2022-09-06T20:52:40.618Z,10.17
2022-09-06T20:55:09.449Z,10.13
2022-09-06T20:57:37.862Z,10.09
2022-09-06T21:00:12.520Z,10.07
2022-09-06T21:02:43.045Z,10.05
2022-09-06T21:05:10.957Z,10.02
2022-09-06T21:07:38.789Z,10.00
2022-09-06T21:10:07.128Z,9.98
2022-09-06T21:12:34.923Z,9.95
2022-09-06T21:15:03.077Z,9.93
2022-09-06T21:17:31.724Z,9.79
2022-09-06T21:19:59.792Z,9.88
2022-09-06T21:22:28.463Z,9.85
2022-09-06T21:24:56.599Z,9.83
2022-09-06T21:27:24.520Z,9.80
2022-09-06T21:29:52.543Z,9.78
2022-09-06T21:32:20.655Z,9.77
2022-09-06T21:34:48.509Z,9.75
2022-09-06T21:37:16.348Z,9.61
2022-09-06T21:39:44.549Z,9.70
2022-09-06T21:42:12.517Z,9.67
2022-09-06T21:44:40.452Z,9.68
2022-09-06T21:47:09.552Z,9.67
2022-09-06T21:49:37.423Z,9.68
2022-09-06T21:52:05.596Z,9.66
2022-09-06T21:54:33.583Z,9.66
2022-09-06T21:57:01.430Z,9.64
2022-09-06T21:59:29.555Z,9.63
2022-09-06T22:01:58.961Z,9.63
2022-09-06T22:04:27.121Z,9.65
2022-09-06T22:06:55.299Z,9.67
2022-09-06T22:09:23.681Z,9.70
2022-09-06T22:11:51.742Z,9.72
2022-09-06T22:14:19.935Z,9.75
2022-09-06T22:16:48.505Z,9.78
2022-09-06T22:19:16.647Z,9.82
2022-09-06T22:21:45.692Z,9.85
2022-09-06T22:24:16.352Z,9.88
2022-09-06T22:26:45.636Z,9.90
2022-09-06T22:29:15.311Z,9.92
2022-09-06T22:31:44.169Z,9.93
2022-09-06T22:34:13.104Z,9.95
2022-09-06T22:36:42.094Z,9.95
2022-09-06T22:39:10.364Z,9.97
2022-09-06T22:41:38.591Z,9.98
2022-09-06T22:44:07.063Z,10.00
2022-09-06T22:46:39.932Z,10.02
2022-09-06T22:49:08.406Z,10.02
2022-09-06T22:51:36.570Z,10.03
2022-09-06T22:54:05.365Z,10.01
2022-09-06T22:56:33.723Z,10.00
2022-09-06T22:59:02.799Z,9.98
2022-09-06T23:01:38.430Z,9.96
2022-09-06T23:04:08.520Z,9.94
2022-09-06T23:06:37.483Z,9.91
2022-09-06T23:09:07.689Z,9.87
2022-09-06T23:11:36.107Z,9.83
2022-09-06T23:14:05.141Z,9.79
2022-09-06T23:16:33.340Z,9.75
2022-09-06T23:19:01.866Z,9.72
2022-09-06T23:21:30.063Z,9.69
2022-09-06T23:23:58.937Z,9.67
2022-09-06T23:26:33.970Z,9.67
2022-09-06T23:29:03.703Z,9.65
2022-09-06T23:31:32.937Z,9.62
2022-09-06T23:34:02.790Z,9.60
2022-09-06T23:36:33.083Z,9.58
2022-09-06T23:39:02.506Z,9.55
2022-09-06T23:41:31.270Z,9.53
2022-09-06T23:44:00.208Z,9.49
2022-09-06T23:46:28.549Z,9.46
2022-09-06T23:48:56.721Z,9.44
2022-09-06T23:51:25.336Z,9.40
2022-09-06T23:53:53.507Z,9.36
2022-09-06T23:56:22.774Z,9.31
2022-09-06T23:58:50.806Z,9.26
